الصفحة الرئيسية
صور الأقمار الصناعية توقعات الطقس لمدة 15 يوممناخالتوقعات البحرية إعصار برق مطارأسئلة وأجوبة النشرة الإخبارية حول
طقس : أوروبا أفريقيا أمريكا الشمالية أمريكا الجنوبية آسيا أستراليا-أوقيانوسيا آخرون
لغات جهة اتصال

سكاكا, السعودية

دائرة عرض: 29-47N, خط طول: 040-06E, ارتفاع: 689 m


METAR: OESK 170300Z 13003KT 6000 NSC 21/08 Q1010 NOSIG
short-TAF: عفا عليها الزمن (13265 ساعات)
long-TAF: OESK 161030Z 1612/1718 18015KT 7000 SCT040 SCT100 TEMPO 1612/1706 VRB20KT 3500 BLDU/TSRA FEW035CB

زمن: 06:50 (03:50 UTC)

مراقبة الطقس الحالي

تاريخ و وقت الإصدار 50 دقيقة قبل الساعة 03:00 UTC  
ريح 03 kt من الجنوب
درجة الحرارة 21°C
الرطوبة 43%
ضغط 1010 hPa
الرؤية 6000 m

تغيير وحدة

توقعات

تاريخ و وقت الإصدار 17 ساعات و 6 دقيقة قبل الساعة 10:44 UTC  
صالحة من التوقعات 16 في 12 بالتوقيت العالمي إلى 17 في 18 بالتوقيت العالمي
ريح 15 kt من الجنوب
الرؤية 7000 m
غيوم متفرقة على ارتفاع 4000 ft
غيوم متفرقة على ارتفاع 10000 ft
مؤقت
من 16 في 12 بالتوقيت العالمي إلى 17 في 06 بالتوقيت العالمي
ريح 20 kt متغير
الرؤية 3500 m
غيوم متفرقة على ارتفاع 3500 ft , مزنة ركامية.
المعلومات الواردة في هذا الموقع يخضع إخلاء
طقس : أوروبا أفريقيا أمريكا الشمالية أمريكا الجنوبية آسيا أستراليا-أوقيانوسيا آخرون
صور الأقمار الصناعية توقعات الطقس لمدة 15 يوممناخالتوقعات البحرية إعصار برق مطارأسئلة وأجوبة لغات جهة اتصال النشرة الإخبارية حول